Airfield :
LOGIN :

Register | Disclaimer

   EN    FR    IT 

 










Legend :    VFR   Marginal VFR   IFR   Intensive IFR   Very Intensive IFR
Visi :
Ceiling :
>= 8 km
>= 3000ft
5 to 8 km
1000 to 3000 ft
1500m to 5 km
500 to 1000 ft
800 to 1500m
200 to 500 ft
< 800m
< 200 ft
Symbols :   Thunderstorms  Fog  Heavy snow  Heavy precipitations  Wind > 20 kt
SIGMETs :     Misc.  Thunderstorms  Icing  Turbulence  Mountain Waves  Volcanic Ashes







- Airport Elevation : 31 ft
- IATA code : TOS


ENTC - Tromsø

CURRENT METAR :
  • 201050Z 06004KT 9999 FEW066 M07/M13 Q1011 NOSIG RMK WIND 2600FT 28006KT

EXPIRED METARs :
  • 201020Z 14002KT 9999 FEW055 M07/M14 Q1010 NOSIG RMK WIND 2600FT 30003KT
  • 200950Z VRB03KT 9999 SCT040 M07/M13 Q1010 NOSIG RMK WIND 2600FT 33009KT
  • 200920Z VRB03KT 9999 FEW072 M08/M14 Q1010 NOSIG RMK WIND 2600FT 35009KT
  • 200850Z 00000KT 9999 FEW072 M08/M15 Q1009 NOSIG RMK WIND 2600FT 01011KT
  • 200820Z 06005KT 9999 FEW040 M07/M16 Q1009 NOSIG RMK WIND 2600FT 36013KT

TAF AMD TAF ENTC
Valid from the 20 at 07:00 until the 21 at 06:00 UTC


2007/2106 05009KT 9999 FEW020 BKN030
TEMPO 2007/2012 2000 SHSN VV008
BECMG 2010/2012 19010KT
No reported NOTAMs for that airfield.



MET'MAP, your aeronautical weather chart ! - Copyright ORBIFLY December 2007 - Disclaimer

ORBIFLY MET'MAP TEAM :

Programming & Development : Alexandra Zaïnal
Concept & Development : Baudouin d'Aumeries
Co-Development & Prog : Marc-Olivier Méhu
Technical & hardware support : Manuel Goepfert

Contact : metmap@orbifly.com




SOURCES & CREDITS :

   NOAA